N Myrtle Beach, South Carolina
Current Conditions -  °F | °C
As of 1:53 AM on Friday 31 Oct 2014 (Local Time) from KCRE Reporting Station
Broken Clouds Broken Clouds  
Wind Chill: 55°   Ceiling: 4800
Heat Index: 55°   Visibility: 10mi
Dew Point: 51°   Wind: 8mph
Humidity: 86%   Direction: 30°NNE
Pressure: 29.91"   Gusts: NA
Location:  33.82°N, 78.68°W
Report Text: KCRE 310553Z 03007KT 10SM BKN048 13/11 A2991 RMK AO1 SLP131 T01280106 10150 20117 58011
Loading
Personal Weather Stations






























Interactive Weather Map
Tropical Storm Tracking
New forecast layout! Learn more

10-Day Weather Forecast

Advertisements
Track Severe Weather on mobile